Time;durP1;ratioP1;P1;durP2;ratioP2;P2;SDS_P1;SDS_P2;PMS_P1;PMS_P2;Temp;Humidity;BMP_temperature;BMP_pressure;BME280_temperature;BME280_humidity;BME280_pressure;Samples;Min_cycle;Max_cycle;Signal;HPM_P1;HPM_P2
2023/01/15 00:00:26;;;;;;;9.45;3.28;;;;;;;;;;5045136;28;20573;-80
2023/01/15 00:02:52;;;;;;;10.57;2.58;;;;;;;;;;5039123;28;20137;-81
2023/01/15 00:05:18;;;;;;;9.82;3.47;;;;;;;;;;5028595;28;20128;-85
2023/01/15 00:07:44;;;;;;;7.72;2.75;;;;;;;;;;5022837;28;20045;-85
2023/01/15 00:10:10;;;;;;;15.35;3.30;;;;;;;;;;5020596;28;20054;-86
2023/01/15 00:12:36;;;;;;;11.57;2.83;;;;;;;;;;5019560;28;20045;-84
2023/01/15 00:15:02;;;;;;;14.32;4.15;;;;;;;;;;5028553;28;20060;-80
2023/01/15 00:17:28;;;;;;;10.65;3.80;;;;;;;;;;5031000;28;20053;-80
2023/01/15 00:19:54;;;;;;;17.05;3.10;;;;;;;;;;5028437;28;20525;-79
2023/01/15 00:22:21;;;;;;;13.30;3.13;;;;;;;;;;5001604;28;20053;-82
2023/01/15 00:27:37;;;;;;;15.27;3.30;;;;;;;;;;5031196;28;20049;-82
2023/01/15 00:30:04;;;;;;;7.85;3.22;;;;;;;;;;5020865;28;20060;-82
2023/01/15 00:32:30;;;;;;;11.52;3.17;;;;;;;;;;5030839;28;20099;-82
2023/01/15 00:34:57;;;;;;;17.45;3.72;;;;;;;;;;5031645;28;20042;-81
2023/01/15 00:37:24;;;;;;;11.38;3.05;;;;;;;;;;5025377;28;20080;-82
2023/01/15 00:39:50;;;;;;;15.27;3.30;;;;;;;;;;5030738;28;20045;-82
2023/01/15 00:42:16;;;;;;;13.57;3.50;;;;;;;;;;5029531;28;20409;-82
2023/01/15 00:44:42;;;;;;;13.15;4.03;;;;;;;;;;5029009;28;20041;-82
2023/01/15 00:47:13;;;;;;;11.70;3.40;;;;;;;;;;5019906;28;20501;-81
2023/01/15 00:49:39;;;;;;;11.63;3.42;;;;;;;;;;5020052;28;20049;-82
2023/01/15 00:52:05;;;;;;;12.77;2.70;;;;;;;;;;5015975;28;20041;-81
2023/01/15 00:54:34;;;;;;;13.50;3.42;;;;;;;;;;5019510;28;20069;-81
2023/01/15 00:57:00;;;;;;;17.92;3.45;;;;;;;;;;5015949;28;20049;-81
2023/01/15 00:59:26;;;;;;;11.02;3.08;;;;;;;;;;5002057;28;20385;-81
2023/01/15 01:01:52;;;;;;;9.45;3.08;;;;;;;;;;5016402;28;20049;-82
2023/01/15 01:04:18;;;;;;;8.45;2.90;;;;;;;;;;5050315;28;20045;-82
2023/01/15 01:06:44;;;;;;;10.40;3.15;;;;;;;;;;5017921;28;20042;-81
2023/01/15 01:09:14;;;;;;;15.05;3.20;;;;;;;;;;5020057;28;20041;-82
2023/01/15 01:11:40;;;;;;;10.90;3.38;;;;;;;;;;5018790;28;20501;-82
2023/01/15 01:14:06;;;;;;;12.30;3.58;;;;;;;;;;5016185;28;20053;-82
2023/01/15 01:16:36;;;;;;;8.75;2.72;;;;;;;;;;5021522;28;20489;-81
2023/01/15 01:19:21;;;;;;;11.50;3.38;;;;;;;;;;5017620;28;20489;-81
2023/01/15 01:21:48;;;;;;;14.65;2.90;;;;;;;;;;5016271;28;20073;-81
2023/01/15 01:24:23;;;;;;;9.90;2.97;;;;;;;;;;5021067;28;20056;-81
2023/01/15 01:26:52;;;;;;;11.63;3.17;;;;;;;;;;5020613;28;20049;-81
2023/01/15 01:29:20;;;;;;;14.50;2.92;;;;;;;;;;5029378;28;20397;-82
2023/01/15 01:31:46;;;;;;;11.18;2.63;;;;;;;;;;5051788;28;20055;-82
2023/01/15 01:34:12;;;;;;;14.35;3.53;;;;;;;;;;5030001;28;20633;-82
2023/01/15 01:36:40;;;;;;;10.35;3.60;;;;;;;;;;5014448;28;20042;-81
2023/01/15 01:39:06;;;;;;;13.52;3.30;;;;;;;;;;5031962;28;20551;-82
2023/01/15 01:41:33;;;;;;;10.52;3.13;;;;;;;;;;5027710;28;20646;-81
2023/01/15 01:44:01;;;;;;;14.32;3.47;;;;;;;;;;5024466;28;20121;-81
2023/01/15 01:46:28;;;;;;;9.15;2.78;;;;;;;;;;5034140;28;20037;-81
2023/01/15 01:48:56;;;;;;;9.05;3.22;;;;;;;;;;5029785;28;20050;-82
2023/01/15 01:51:26;;;;;;;15.88;3.17;;;;;;;;;;5022585;28;20088;-81
2023/01/15 01:53:52;;;;;;;11.65;3.10;;;;;;;;;;5030478;28;20038;-81
2023/01/15 01:56:18;;;;;;;11.65;2.92;;;;;;;;;;5021717;28;20111;-81
2023/01/15 01:58:49;;;;;;;11.73;3.10;;;;;;;;;;5021542;28;20049;-82
2023/01/15 02:01:16;;;;;;;15.05;3.53;;;;;;;;;;5022987;28;20516;-81
2023/01/15 02:03:42;;;;;;;12.57;2.90;;;;;;;;;;5019420;28;20053;-81
2023/01/15 02:06:09;;;;;;;11.98;3.03;;;;;;;;;;5021558;28;20429;-81
2023/01/15 02:08:38;;;;;;;14.98;3.75;;;;;;;;;;5024600;28;20068;-82
2023/01/15 02:11:04;;;;;;;11.48;2.97;;;;;;;;;;5025726;28;20187;-81
2023/01/15 02:13:38;;;;;;;8.48;3.05;;;;;;;;;;5027122;28;20595;-81
2023/01/15 02:16:15;;;;;;;11.65;3.13;;;;;;;;;;5031255;28;20501;-81
2023/01/15 02:18:41;;;;;;;10.38;3.15;;;;;;;;;;5023213;28;20425;-82
2023/01/15 02:21:16;;;;;;;7.40;2.90;;;;;;;;;;5020966;28;20049;-81
2023/01/15 02:24:01;;;;;;;12.55;2.97;;;;;;;;;;5030997;28;20041;-81
2023/01/15 02:26:42;;;;;;;11.60;2.88;;;;;;;;;;5017930;28;20042;-82
2023/01/15 02:29:13;;;;;;;10.95;3.60;;;;;;;;;;5018444;28;20409;-81
2023/01/15 02:31:41;;;;;;;13.35;3.55;;;;;;;;;;5042429;28;20041;-81
2023/01/15 02:34:12;;;;;;;8.35;2.90;;;;;;;;;;5020336;28;20099;-81
2023/01/15 02:36:41;;;;;;;10.38;2.65;;;;;;;;;;5043016;28;20053;-81
2023/01/15 02:39:09;;;;;;;9.50;2.83;;;;;;;;;;5022776;28;20129;-81
2023/01/15 02:41:37;;;;;;;13.75;2.75;;;;;;;;;;5029956;28;20064;-82
2023/01/15 02:44:04;;;;;;;10.48;2.85;;;;;;;;;;5028660;28;20069;-81
2023/01/15 02:46:32;;;;;;;13.10;2.80;;;;;;;;;;5021299;28;20068;-81
2023/01/15 02:49:00;;;;;;;11.50;3.10;;;;;;;;;;5029103;28;20084;-80
2023/01/15 02:51:28;;;;;;;15.30;3.58;;;;;;;;;;5025962;28;20050;-80
2023/01/15 02:53:57;;;;;;;13.88;3.97;;;;;;;;;;5028430;28;20052;-81
2023/01/15 02:56:26;;;;;;;5.00;2.15;;;;;;;;;;5058777;28;20401;-81
2023/01/15 02:58:53;;;;;;;11.48;3.38;;;;;;;;;;5021190;28;20045;-79
2023/01/15 03:01:23;;;;;;;13.48;3.65;;;;;;;;;;5022165;28;20135;-81
2023/01/15 03:04:22;;;;;;;15.15;3.22;;;;;;;;;;5020410;28;22025;-81
2023/01/15 03:06:48;;;;;;;11.10;2.92;;;;;;;;;;5048425;28;20084;-81
2023/01/15 03:09:20;;;;;;;9.82;2.67;;;;;;;;;;5028074;28;20081;-81
2023/01/15 03:11:51;;;;;;;10.70;2.92;;;;;;;;;;5019325;28;20447;-81
2023/01/15 03:14:35;;;;;;;9.90;3.45;;;;;;;;;;5029204;28;20088;-81
2023/01/15 03:17:06;;;;;;;7.57;2.53;;;;;;;;;;5023970;28;20456;-81
2023/01/15 03:19:43;;;;;;;10.85;3.55;;;;;;;;;;5056062;28;20103;-81
2023/01/15 03:22:15;;;;;;;7.90;3.00;;;;;;;;;;5021625;28;20045;-81
2023/01/15 03:24:45;;;;;;;11.13;2.83;;;;;;;;;;5028258;28;20060;-81
2023/01/15 03:27:12;;;;;;;5.72;2.70;;;;;;;;;;5030662;28;20038;-81
2023/01/15 03:29:40;;;;;;;9.63;3.08;;;;;;;;;;5028927;28;20049;-80
2023/01/15 03:32:06;;;;;;;10.52;3.25;;;;;;;;;;5009780;28;20048;-81
2023/01/15 03:34:43;;;;;;;11.05;3.30;;;;;;;;;;5046288;28;20493;-81
2023/01/15 03:37:09;;;;;;;14.38;3.10;;;;;;;;;;5026907;28;20053;-80
2023/01/15 03:39:35;;;;;;;10.45;2.75;;;;;;;;;;5026906;28;20049;-81
2023/01/15 03:42:04;;;;;;;11.45;2.88;;;;;;;;;;5026889;28;21717;-80
2023/01/15 03:44:39;;;;;;;9.20;2.88;;;;;;;;;;5017256;28;20083;-81
2023/01/15 03:47:17;;;;;;;10.40;3.00;;;;;;;;;;5031679;28;20056;-81
2023/01/15 03:49:46;;;;;;;12.20;3.35;;;;;;;;;;5043310;28;20470;-80
2023/01/15 03:52:15;;;;;;;7.65;3.53;;;;;;;;;;5038241;28;20048;-81
2023/01/15 03:54:51;;;;;;;12.63;3.40;;;;;;;;;;5002367;28;20049;-81
2023/01/15 03:57:43;;;;;;;10.13;3.67;;;;;;;;;;5044005;28;20107;-81
2023/01/15 04:00:12;;;;;;;11.02;3.15;;;;;;;;;;5020427;28;20053;-81
2023/01/15 04:02:38;;;;;;;11.13;3.28;;;;;;;;;;5028519;28;20136;-81
2023/01/15 04:05:04;;;;;;;11.35;2.78;;;;;;;;;;5027780;28;20064;-81
2023/01/15 04:07:31;;;;;;;10.70;2.95;;;;;;;;;;5027642;28;20045;-81
2023/01/15 04:09:57;;;;;;;8.95;3.13;;;;;;;;;;5018136;28;20378;-81
2023/01/15 04:12:23;;;;;;;12.77;3.28;;;;;;;;;;5026420;28;20107;-81
2023/01/15 04:14:49;;;;;;;11.85;2.72;;;;;;;;;;5017143;28;20409;-81
2023/01/15 04:17:15;;;;;;;13.25;3.60;;;;;;;;;;5021816;28;20049;-80
2023/01/15 04:19:43;;;;;;;7.20;2.65;;;;;;;;;;5052488;28;20058;-81
2023/01/15 04:22:09;;;;;;;15.15;3.47;;;;;;;;;;5025323;28;20041;-81
2023/01/15 04:24:35;;;;;;;13.45;3.20;;;;;;;;;;5030139;28;20049;-80
2023/01/15 04:27:01;;;;;;;16.17;3.22;;;;;;;;;;5021143;28;20050;-81
2023/01/15 04:29:27;;;;;;;12.43;3.55;;;;;;;;;;5022924;28;20079;-81
2023/01/15 04:31:56;;;;;;;9.77;3.60;;;;;;;;;;5009580;28;20133;-80
2023/01/15 04:34:23;;;;;;;14.10;2.42;;;;;;;;;;5024889;28;20103;-80
2023/01/15 04:36:49;;;;;;;11.98;3.65;;;;;;;;;;5028889;28;20119;-81
2023/01/15 04:39:15;;;;;;;10.13;3.17;;;;;;;;;;5027621;28;20489;-81
2023/01/15 04:44:28;;;;;;;9.80;2.92;;;;;;;;;;5031414;28;20477;-80
2023/01/15 04:46:54;;;;;;;10.63;3.83;;;;;;;;;;5028450;28;20557;-80
2023/01/15 04:49:21;;;;;;;12.30;3.17;;;;;;;;;;5023758;28;20037;-81
2023/01/15 04:51:47;;;;;;;12.98;3.40;;;;;;;;;;5031302;28;20136;-81
2023/01/15 04:54:14;;;;;;;12.90;2.97;;;;;;;;;;5026001;28;20091;-80
2023/01/15 04:56:41;;;;;;;8.30;2.78;;;;;;;;;;5033969;28;20049;-78
2023/01/15 04:59:08;;;;;;;8.98;3.00;;;;;;;;;;5033140;28;20526;-80
2023/01/15 05:01:34;;;;;;;10.73;3.30;;;;;;;;;;5012425;28;20041;-79
2023/01/15 05:04:00;;;;;;;15.73;3.72;;;;;;;;;;5025735;28;20559;-80
2023/01/15 05:06:27;;;;;;;11.10;2.95;;;;;;;;;;5023468;28;20048;-80
2023/01/15 05:08:53;;;;;;;12.02;3.20;;;;;;;;;;5029596;28;20073;-79
2023/01/15 05:11:19;;;;;;;9.90;3.20;;;;;;;;;;5061668;28;20038;-80
2023/01/15 05:13:45;;;;;;;12.55;3.10;;;;;;;;;;5039948;28;20075;-80
2023/01/15 05:16:16;;;;;;;8.35;2.55;;;;;;;;;;5034817;28;20664;-80
2023/01/15 05:18:42;;;;;;;12.43;3.20;;;;;;;;;;5029161;28;20046;-80
2023/01/15 05:21:22;;;;;;;11.13;2.83;;;;;;;;;;5024857;28;20448;-80
2023/01/15 05:23:49;;;;;;;13.80;3.55;;;;;;;;;;5028733;28;20037;-80
2023/01/15 05:26:15;;;;;;;9.27;3.13;;;;;;;;;;5030075;28;20045;-80
2023/01/15 05:28:41;;;;;;;11.80;2.97;;;;;;;;;;5028609;28;20501;-80
2023/01/15 05:31:11;;;;;;;11.80;2.88;;;;;;;;;;5027851;28;20172;-80
2023/01/15 05:33:37;;;;;;;10.68;3.05;;;;;;;;;;5035125;28;20049;-79
2023/01/15 05:36:05;;;;;;;10.05;3.20;;;;;;;;;;5031230;28;20049;-79
2023/01/15 05:38:32;;;;;;;11.40;3.03;;;;;;;;;;5025815;28;20042;-80
2023/01/15 05:40:58;;;;;;;10.32;2.60;;;;;;;;;;5025656;28;20046;-79
2023/01/15 05:43:24;;;;;;;12.50;3.15;;;;;;;;;;5035040;28;20122;-80
2023/01/15 05:45:50;;;;;;;7.10;2.97;;;;;;;;;;5041815;28;20108;-79
2023/01/15 05:48:16;;;;;;;9.40;3.58;;;;;;;;;;5021614;28;20037;-79
2023/01/15 05:50:42;;;;;;;9.63;3.28;;;;;;;;;;5030549;28;20049;-78
2023/01/15 05:53:09;;;;;;;9.02;2.35;;;;;;;;;;5027135;28;20375;-80
2023/01/15 05:55:35;;;;;;;10.10;2.92;;;;;;;;;;5031476;28;20405;-79
2023/01/15 05:58:01;;;;;;;7.63;3.30;;;;;;;;;;5037636;28;20508;-80
2023/01/15 06:00:27;;;;;;;16.17;3.38;;;;;;;;;;5028560;28;20050;-80
2023/01/15 06:02:53;;;;;;;16.17;3.75;;;;;;;;;;5046797;28;20045;-79
2023/01/15 06:05:19;;;;;;;9.85;3.17;;;;;;;;;;5036051;28;20041;-80
2023/01/15 06:07:48;;;;;;;12.55;2.88;;;;;;;;;;5029093;28;20060;-79
2023/01/15 06:10:14;;;;;;;9.88;2.88;;;;;;;;;;5016906;28;20138;-80
2023/01/15 06:12:41;;;;;;;11.93;3.10;;;;;;;;;;5032528;28;20061;-79
2023/01/15 06:15:08;;;;;;;8.10;2.88;;;;;;;;;;5031652;28;20071;-79
2023/01/15 06:17:34;;;;;;;10.00;2.70;;;;;;;;;;5030074;28;20132;-80
2023/01/15 06:20:00;;;;;;;10.27;2.72;;;;;;;;;;5030364;28;20057;-80
2023/01/15 06:22:26;;;;;;;7.88;2.60;;;;;;;;;;5026393;28;20050;-79
2023/01/15 06:24:52;;;;;;;11.65;2.70;;;;;;;;;;5026877;28;20061;-79
2023/01/15 06:27:18;;;;;;;10.65;2.97;;;;;;;;;;5027127;28;20037;-80
2023/01/15 06:29:44;;;;;;;6.97;2.70;;;;;;;;;;5022043;28;20037;-80
2023/01/15 06:32:10;;;;;;;7.53;2.72;;;;;;;;;;5028920;28;20480;-80
2023/01/15 06:34:36;;;;;;;9.52;2.40;;;;;;;;;;5016705;28;20045;-79
2023/01/15 06:37:02;;;;;;;13.27;3.88;;;;;;;;;;5045266;28;20067;-79
2023/01/15 06:39:28;;;;;;;11.75;2.60;;;;;;;;;;5032528;28;20041;-79
2023/01/15 06:47:24;;;;;;;10.13;3.10;;;;;;;;;;5043398;28;20382;-80
2023/01/15 06:49:54;;;;;;;11.40;3.08;;;;;;;;;;5040850;28;20048;-79
2023/01/15 06:52:20;;;;;;;10.65;2.78;;;;;;;;;;5042119;28;20115;-80
2023/01/15 06:54:47;;;;;;;9.13;2.72;;;;;;;;;;5038478;28;20095;-80
2023/01/15 06:57:13;;;;;;;12.38;3.13;;;;;;;;;;5042585;28;20081;-80
2023/01/15 06:59:39;;;;;;;12.93;3.25;;;;;;;;;;5036117;28;20045;-80
2023/01/15 07:02:05;;;;;;;11.88;3.17;;;;;;;;;;5041783;28;20102;-80
2023/01/15 07:04:31;;;;;;;15.82;3.92;;;;;;;;;;5034063;28;20041;-80
2023/01/15 07:06:57;;;;;;;8.55;3.05;;;;;;;;;;5040165;28;20115;-79
2023/01/15 07:09:23;;;;;;;13.18;3.45;;;;;;;;;;5022495;28;20371;-79
2023/01/15 07:11:49;;;;;;;8.70;2.50;;;;;;;;;;5028164;28;20641;-79
2023/01/15 07:14:19;;;;;;;6.15;2.30;;;;;;;;;;5030379;28;20554;-80
2023/01/15 07:16:45;;;;;;;12.05;3.03;;;;;;;;;;5029646;28;20049;-80
2023/01/15 07:19:12;;;;;;;12.35;2.70;;;;;;;;;;5020172;28;20064;-80
2023/01/15 07:21:38;;;;;;;7.55;3.15;;;;;;;;;;5026915;28;20057;-79
2023/01/15 07:24:04;;;;;;;12.45;3.00;;;;;;;;;;5024657;28;20046;-79
2023/01/15 07:26:30;;;;;;;9.35;3.17;;;;;;;;;;5032395;28;20058;-79
2023/01/15 07:28:56;;;;;;;8.13;2.78;;;;;;;;;;5031663;28;20127;-79
2023/01/15 07:31:22;;;;;;;9.55;3.00;;;;;;;;;;5025053;28;20042;-79
2023/01/15 07:33:49;;;;;;;17.83;3.15;;;;;;;;;;5028434;28;20041;-80
2023/01/15 07:36:15;;;;;;;15.02;3.60;;;;;;;;;;5025744;28;20060;-80
2023/01/15 07:38:41;;;;;;;14.88;3.22;;;;;;;;;;5052287;28;20038;-80
2023/01/15 07:52:06;;;;;;;13.50;2.90;;;;;;;;;;5038218;28;20049;-80
2023/01/15 07:54:32;;;;;;;10.23;2.42;;;;;;;;;;5027341;28;20048;-79
2023/01/15 07:56:58;;;;;;;9.57;2.65;;;;;;;;;;5028391;28;20052;-80
2023/01/15 07:59:24;;;;;;;12.48;3.50;;;;;;;;;;5026617;28;20041;-80
2023/01/15 08:01:50;;;;;;;14.23;3.35;;;;;;;;;;5016926;28;20045;-79
2023/01/15 08:04:16;;;;;;;12.05;3.10;;;;;;;;;;5027051;28;20046;-80
2023/01/15 08:06:42;;;;;;;10.73;2.40;;;;;;;;;;5011622;28;20049;-80
2023/01/15 08:09:08;;;;;;;10.05;3.60;;;;;;;;;;5026594;28;20033;-80
2023/01/15 08:17:04;;;;;;;14.10;3.92;;;;;;;;;;5042992;28;20131;-79
2023/01/15 08:19:30;;;;;;;14.63;3.47;;;;;;;;;;5025705;28;20041;-79
2023/01/15 08:21:56;;;;;;;16.02;3.40;;;;;;;;;;5032708;28;20049;-79
2023/01/15 08:24:25;;;;;;;11.90;2.58;;;;;;;;;;5021062;28;21996;-80
2023/01/15 08:26:51;;;;;;;11.98;3.22;;;;;;;;;;5024808;28;20049;-79
2023/01/15 08:29:18;;;;;;;12.07;3.03;;;;;;;;;;5031184;28;20041;-80
2023/01/15 08:31:44;;;;;;;12.77;3.05;;;;;;;;;;5042866;28;20037;-79
2023/01/15 08:34:10;;;;;;;14.20;3.63;;;;;;;;;;5038653;28;20094;-78
2023/01/15 08:36:36;;;;;;;10.32;3.35;;;;;;;;;;5051099;28;20045;-79
2023/01/15 08:39:02;;;;;;;15.02;3.25;;;;;;;;;;5025411;28;20092;-79
2023/01/15 08:41:29;;;;;;;9.35;2.95;;;;;;;;;;5036791;28;20052;-79
2023/01/15 08:43:55;;;;;;;13.02;3.45;;;;;;;;;;5018108;28;20107;-79
2023/01/15 08:46:21;;;;;;;10.80;3.20;;;;;;;;;;5038309;28;20037;-79
2023/01/15 08:48:47;;;;;;;19.83;4.15;;;;;;;;;;5039751;28;20045;-79
2023/01/15 08:51:13;;;;;;;18.48;3.30;;;;;;;;;;5039613;28;20057;-80
2023/01/15 08:53:39;;;;;;;12.30;3.20;;;;;;;;;;5014933;28;21055;-80
2023/01/15 08:56:12;;;;;;;16.98;3.92;;;;;;;;;;5019252;28;20057;-80
2023/01/15 08:58:38;;;;;;;12.88;3.58;;;;;;;;;;5031392;28;20091;-79
2023/01/15 09:01:05;;;;;;;12.43;3.03;;;;;;;;;;5029917;28;20045;-79
2023/01/15 09:03:31;;;;;;;11.10;3.30;;;;;;;;;;5015913;28;20046;-79
2023/01/15 09:06:00;;;;;;;8.77;2.80;;;;;;;;;;5027599;28;20038;-79
2023/01/15 09:08:27;;;;;;;14.23;2.95;;;;;;;;;;5042677;28;20045;-79
2023/01/15 09:10:58;;;;;;;11.27;4.30;;;;;;;;;;5021084;28;20069;-79
2023/01/15 09:13:24;;;;;;;9.52;3.05;;;;;;;;;;5038350;28;20445;-80
2023/01/15 09:15:50;;;;;;;9.40;3.00;;;;;;;;;;5010484;28;20041;-77
2023/01/15 09:18:18;;;;;;;9.40;3.25;;;;;;;;;;5031647;28;20053;-79
2023/01/15 09:20:47;;;;;;;11.20;3.15;;;;;;;;;;5028743;28;20071;-80
2023/01/15 09:23:13;;;;;;;15.30;3.95;;;;;;;;;;5053380;28;20053;-79
2023/01/15 09:25:41;;;;;;;14.88;3.75;;;;;;;;;;5035195;28;20046;-77
2023/01/15 09:28:07;;;;;;;13.13;3.95;;;;;;;;;;5034762;28;20057;-78
2023/01/15 09:30:33;;;;;;;15.82;4.93;;;;;;;;;;5031893;28;20048;-78
2023/01/15 09:32:59;;;;;;;13.27;4.05;;;;;;;;;;5038071;28;20040;-81
2023/01/15 09:35:25;;;;;;;14.93;3.95;;;;;;;;;;5040821;28;20497;-82
2023/01/15 09:37:54;;;;;;;24.13;3.67;;;;;;;;;;5031585;28;20045;-79
2023/01/15 09:40:43;;;;;;;16.42;3.75;;;;;;;;;;5026969;28;20473;-81
2023/01/15 09:43:14;;;;;;;12.93;3.97;;;;;;;;;;5018172;28;20075;-81
2023/01/15 09:45:45;;;;;;;10.27;3.38;;;;;;;;;;5043615;28;20045;-88
2023/01/15 09:48:19;;;;;;;13.27;4.13;;;;;;;;;;5023902;28;20156;-82
2023/01/15 09:51:04;;;;;;;15.50;4.45;;;;;;;;;;5041839;28;20053;-83
2023/01/15 09:53:56;;;;;;;10.05;3.58;;;;;;;;;;5029186;28;20056;-82
2023/01/15 09:56:26;;;;;;;10.35;3.53;;;;;;;;;;5030323;28;20053;-80
2023/01/15 09:58:53;;;;;;;9.48;2.80;;;;;;;;;;5039003;28;20045;-80
2023/01/15 10:01:24;;;;;;;12.75;3.10;;;;;;;;;;5043055;28;20037;-78
2023/01/15 10:03:59;;;;;;;9.15;3.45;;;;;;;;;;5041280;28;20049;-78
2023/01/15 10:06:27;;;;;;;16.45;4.18;;;;;;;;;;5033002;28;20041;-78
2023/01/15 10:09:03;;;;;;;10.75;3.50;;;;;;;;;;5045986;28;20048;-80
2023/01/15 10:14:28;;;;;;;12.98;3.42;;;;;;;;;;5053940;28;20472;-80
2023/01/15 10:16:55;;;;;;;20.80;4.80;;;;;;;;;;5024147;28;20060;-80
2023/01/15 10:19:21;;;;;;;7.65;2.53;;;;;;;;;;5012090;28;20053;-76
2023/01/15 10:21:58;;;;;;;8.05;2.85;;;;;;;;;;5031783;28;20052;-76
2023/01/15 10:24:36;;;;;;;12.95;3.65;;;;;;;;;;5024338;28;20104;-76
2023/01/15 10:27:04;;;;;;;16.55;3.65;;;;;;;;;;5029132;28;20038;-76
2023/01/15 10:29:44;;;;;;;15.35;3.95;;;;;;;;;;5025101;28;20973;-75
2023/01/15 10:32:13;;;;;;;11.73;4.20;;;;;;;;;;5022537;28;20045;-76
2023/01/15 10:34:59;;;;;;;14.15;3.40;;;;;;;;;;5025215;28;20045;-78
2023/01/15 10:37:40;;;;;;;17.52;4.03;;;;;;;;;;5020913;28;20046;-78
2023/01/15 10:40:22;;;;;;;17.52;4.13;;;;;;;;;;5020741;28;20052;-76
2023/01/15 10:42:48;;;;;;;19.73;5.30;;;;;;;;;;5019198;28;20089;-77
2023/01/15 10:45:20;;;;;;;14.85;4.03;;;;;;;;;;5023063;28;20099;-77
2023/01/15 10:47:49;;;;;;;12.60;3.83;;;;;;;;;;5020925;28;20100;-75
2023/01/15 10:50:20;;;;;;;13.35;3.60;;;;;;;;;;5026557;28;20038;-76
2023/01/15 10:53:10;;;;;;;16.48;4.18;;;;;;;;;;5035356;28;20136;-77
2023/01/15 10:55:39;;;;;;;20.55;4.50;;;;;;;;;;5050616;28;20493;-81
2023/01/15 10:58:32;;;;;;;12.10;3.42;;;;;;;;;;5030715;28;20059;-85
2023/01/15 11:00:59;;;;;;;16.90;3.45;;;;;;;;;;5024613;28;20049;-80
2023/01/15 11:03:32;;;;;;;15.55;3.72;;;;;;;;;;5027669;28;20059;-78
2023/01/15 11:05:58;;;;;;;13.90;4.18;;;;;;;;;;5022827;28;20530;-79
2023/01/15 11:08:30;;;;;;;17.70;4.40;;;;;;;;;;5027251;28;20049;-78
2023/01/15 11:11:09;;;;;;;9.95;3.08;;;;;;;;;;5015227;28;20049;-80
2023/01/15 11:19:36;;;;;;;18.92;4.15;;;;;;;;;;5036677;28;20058;-78
2023/01/15 11:22:18;;;;;;;16.80;4.07;;;;;;;;;;5053316;28;20040;-77
2023/01/15 11:24:47;;;;;;;15.52;4.38;;;;;;;;;;5016042;28;20080;-75
2023/01/15 11:27:15;;;;;;;11.70;3.42;;;;;;;;;;5015661;28;20041;-75
2023/01/15 11:29:43;;;;;;;15.73;4.45;;;;;;;;;;5053687;28;20045;-76
2023/01/15 11:32:20;;;;;;;10.05;3.95;;;;;;;;;;5024008;28;20481;-80
2023/01/15 11:34:56;;;;;;;12.88;3.78;;;;;;;;;;5024890;28;20450;-81
2023/01/15 11:37:22;;;;;;;12.80;3.28;;;;;;;;;;5017210;28;20088;-78
2023/01/15 11:40:05;;;;;;;15.88;3.85;;;;;;;;;;5020164;28;20088;-78
2023/01/15 11:51:17;;;;;;;16.48;3.83;;;;;;;;;;5025527;28;20099;-79
2023/01/15 11:53:49;;;;;;;18.30;3.92;;;;;;;;;;5019089;28;20042;-78
2023/01/15 11:56:20;;;;;;;7.93;3.05;;;;;;;;;;5019079;28;20050;-78
2023/01/15 11:58:50;;;;;;;27.75;4.25;;;;;;;;;;5024248;28;20053;-79
2023/01/15 12:01:30;;;;;;;17.40;4.68;;;;;;;;;;5018350;28;20040;-79
2023/01/15 12:03:57;;;;;;;12.63;3.92;;;;;;;;;;5059561;28;20049;-80
2023/01/15 12:06:24;;;;;;;20.25;3.97;;;;;;;;;;5025917;28;20059;-80
2023/01/15 12:08:52;;;;;;;14.98;3.72;;;;;;;;;;5025499;28;20045;-80
2023/01/15 12:11:26;;;;;;;13.52;3.67;;;;;;;;;;5028883;28;20037;-79
2023/01/15 12:13:52;;;;;;;18.05;5.05;;;;;;;;;;5029730;28;20041;-79
2023/01/15 12:16:18;;;;;;;23.15;4.95;;;;;;;;;;5024012;28;20115;-79
2023/01/15 12:19:08;;;;;;;16.92;4.07;;;;;;;;;;5021244;28;20092;-79
2023/01/15 12:21:42;;;;;;;15.57;4.38;;;;;;;;;;5019078;28;20151;-80
2023/01/15 12:24:11;;;;;;;19.02;4.82;;;;;;;;;;5010670;28;20046;-79
2023/01/15 12:26:40;;;;;;;18.92;4.25;;;;;;;;;;5022113;28;20049;-80
2023/01/15 12:29:15;;;;;;;16.33;3.92;;;;;;;;;;5030411;28;20042;-80
2023/01/15 12:31:47;;;;;;;12.90;3.58;;;;;;;;;;5019111;28;20108;-80
2023/01/15 12:34:18;;;;;;;20.02;4.60;;;;;;;;;;5011368;28;20038;-80
2023/01/15 12:36:47;;;;;;;20.90;4.80;;;;;;;;;;5025756;28;20058;-79
2023/01/15 12:39:19;;;;;;;23.30;5.07;;;;;;;;;;5031336;28;20042;-80
2023/01/15 12:45:04;;;;;;;14.80;3.22;;;;;;;;;;5025012;28;20073;-80
2023/01/15 12:47:42;;;;;;;13.10;3.25;;;;;;;;;;5029158;28;20132;-80
2023/01/15 12:50:18;;;;;;;18.15;3.55;;;;;;;;;;5029818;28;20511;-80
2023/01/15 12:52:45;;;;;;;13.90;2.63;;;;;;;;;;5027476;28;20050;-78
2023/01/15 12:55:19;;;;;;;16.85;4.10;;;;;;;;;;5011413;28;20387;-79
2023/01/15 12:57:49;;;;;;;14.60;2.65;;;;;;;;;;5030462;28;20499;-77
2023/01/15 13:00:30;;;;;;;9.98;2.80;;;;;;;;;;5023721;28;20069;-78
2023/01/15 13:03:05;;;;;;;8.18;2.30;;;;;;;;;;5029718;28;20052;-79
2023/01/15 13:05:39;;;;;;;10.27;2.72;;;;;;;;;;5025830;28;20057;-80
2023/01/15 13:08:10;;;;;;;9.68;2.72;;;;;;;;;;5030372;28;20053;-80
2023/01/15 13:10:38;;;;;;;10.07;2.30;;;;;;;;;;5022327;28;20192;-79
2023/01/15 13:13:30;;;;;;;12.15;2.75;;;;;;;;;;5025240;28;20042;-80
2023/01/15 13:15:56;;;;;;;12.93;3.85;;;;;;;;;;5009194;28;20057;-80
2023/01/15 13:18:22;;;;;;;12.52;3.28;;;;;;;;;;5012790;28;20076;-80
2023/01/15 13:20:51;;;;;;;17.23;4.05;;;;;;;;;;5000821;28;20037;-80
2023/01/15 13:23:36;;;;;;;18.85;4.70;;;;;;;;;;5029608;28;20053;-80
2023/01/15 13:26:12;;;;;;;15.93;3.97;;;;;;;;;;5021857;28;20052;-80
2023/01/15 13:28:54;;;;;;;16.60;4.00;;;;;;;;;;5025123;28;20057;-80
2023/01/15 13:31:30;;;;;;;15.07;3.80;;;;;;;;;;5023542;28;20064;-80
2023/01/15 13:33:59;;;;;;;13.27;3.80;;;;;;;;;;5030243;28;20049;-80
2023/01/15 13:36:28;;;;;;;16.38;4.68;;;;;;;;;;5033052;28;20042;-81
2023/01/15 13:38:56;;;;;;;20.80;4.88;;;;;;;;;;5030518;28;20041;-80
2023/01/15 13:44:15;;;;;;;18.05;4.05;;;;;;;;;;5025248;28;20046;-80
2023/01/15 13:46:42;;;;;;;18.42;4.43;;;;;;;;;;5022709;28;20041;-80
2023/01/15 13:49:28;;;;;;;16.10;3.85;;;;;;;;;;5024965;28;20050;-81
2023/01/15 13:51:57;;;;;;;13.90;3.78;;;;;;;;;;5020136;28;20049;-79
2023/01/15 13:54:27;;;;;;;17.40;4.00;;;;;;;;;;5036826;28;20053;-80
2023/01/15 13:56:53;;;;;;;15.25;4.35;;;;;;;;;;5031015;28;20044;-84
2023/01/15 13:59:34;;;;;;;13.90;3.50;;;;;;;;;;5035364;28;20132;-93
2023/01/15 14:02:00;;;;;;;11.90;3.20;;;;;;;;;;5042331;28;20068;-86
2023/01/15 14:04:36;;;;;;;16.70;4.32;;;;;;;;;;5040083;28;20543;-88
2023/01/15 14:07:02;;;;;;;9.23;3.35;;;;;;;;;;5031013;28;20119;-79
2023/01/15 14:09:30;;;;;;;12.27;3.90;;;;;;;;;;5024752;28;20507;-79
2023/01/15 14:11:59;;;;;;;16.08;3.45;;;;;;;;;;5030297;28;20045;-78
2023/01/15 14:14:25;;;;;;;14.07;2.83;;;;;;;;;;5022337;28;20041;-80
2023/01/15 14:17:06;;;;;;;20.23;3.88;;;;;;;;;;5024342;28;20584;-79
2023/01/15 14:19:42;;;;;;;15.20;4.22;;;;;;;;;;5025727;28;20412;-79
2023/01/15 14:22:23;;;;;;;17.80;4.18;;;;;;;;;;5034466;28;20045;-82
2023/01/15 14:25:12;;;;;;;13.82;3.10;;;;;;;;;;5023292;28;20424;-81
2023/01/15 14:27:48;;;;;;;12.77;3.58;;;;;;;;;;5027239;28;20049;-84
2023/01/15 14:30:14;;;;;;;13.20;3.20;;;;;;;;;;5024813;28;20091;-85
2023/01/15 14:32:40;;;;;;;11.07;3.33;;;;;;;;;;5034230;28;20073;-87
2023/01/15 14:35:11;;;;;;;10.60;2.95;;;;;;;;;;5036956;28;20045;-85
2023/01/15 14:38:09;;;;;;;8.35;2.83;;;;;;;;;;5027306;28;20045;-84
2023/01/15 14:40:39;;;;;;;10.93;3.10;;;;;;;;;;5030858;28;20140;-78
2023/01/15 14:43:13;;;;;;;12.70;2.80;;;;;;;;;;5026163;28;20064;-81
2023/01/15 14:45:40;;;;;;;10.45;2.83;;;;;;;;;;5037290;28;20404;-80
2023/01/15 14:48:18;;;;;;;10.88;3.28;;;;;;;;;;5025632;28;20044;-80
2023/01/15 14:50:44;;;;;;;13.63;2.78;;;;;;;;;;5026449;28;20070;-80
2023/01/15 14:53:13;;;;;;;10.48;3.38;;;;;;;;;;5013827;28;20041;-82
2023/01/15 14:55:44;;;;;;;7.22;2.90;;;;;;;;;;5037665;28;20046;-83
2023/01/15 14:58:25;;;;;;;10.13;3.47;;;;;;;;;;5020565;28;20100;-82
2023/01/15 15:00:52;;;;;;;9.52;2.55;;;;;;;;;;5045514;28;20378;-81
2023/01/15 15:03:35;;;;;;;6.53;2.58;;;;;;;;;;5027419;28;20045;-80
2023/01/15 15:06:01;;;;;;;8.95;2.75;;;;;;;;;;5038158;28;20128;-80
2023/01/15 15:08:30;;;;;;;12.55;2.80;;;;;;;;;;5032332;28;20040;-80
2023/01/15 15:10:57;;;;;;;9.25;3.17;;;;;;;;;;5023057;28;20079;-81
2023/01/15 15:13:39;;;;;;;8.90;2.58;;;;;;;;;;5033244;28;20489;-79
2023/01/15 15:16:13;;;;;;;13.25;3.25;;;;;;;;;;5022192;28;20469;-82
2023/01/15 15:18:42;;;;;;;12.77;3.47;;;;;;;;;;5041177;28;20140;-82
2023/01/15 15:21:13;;;;;;;11.60;3.45;;;;;;;;;;5025573;28;20115;-80
2023/01/15 15:23:45;;;;;;;10.80;3.30;;;;;;;;;;5022622;28;20073;-82
2023/01/15 15:26:20;;;;;;;12.63;3.35;;;;;;;;;;5026982;28;20409;-83
2023/01/15 15:28:59;;;;;;;11.48;2.80;;;;;;;;;;5024367;28;20073;-82
2023/01/15 15:31:26;;;;;;;12.45;4.43;;;;;;;;;;5025812;28;20077;-79
2023/01/15 15:33:53;;;;;;;9.25;2.97;;;;;;;;;;5024766;28;20049;-79
2023/01/15 15:36:20;;;;;;;13.02;2.92;;;;;;;;;;5021986;28;20040;-81
2023/01/15 15:38:56;;;;;;;11.25;2.80;;;;;;;;;;5024249;28;20041;-81